Time;durP1;ratioP1;P1;durP2;ratioP2;P2;SDS_P1;SDS_P2;PMS_P1;PMS_P2;Temp;Humidity;BMP_temperature;BMP_pressure;BME280_temperature;BME280_humidity;BME280_pressure;Samples;Min_cycle;Max_cycle;Signal;HPM_P1;HPM_P2
2022/10/04 00:01:25;;;;;;;0.10;0.10;;;;;;;9.99;78.16;98550.94;5010173;28;20046;-65
2022/10/04 00:04:03;;;;;;;0.10;0.10;;;;;;;10.01;77.68;98556.91;5025728;28;20096;-65
2022/10/04 00:06:29;;;;;;;0.10;0.10;;;;;;;10.02;77.70;98542.94;5025283;28;20471;-66
2022/10/04 00:08:57;;;;;;;0.10;0.10;;;;;;;9.99;77.89;98557.22;5042802;28;20044;-66
2022/10/04 00:11:27;;;;;;;0.10;0.10;;;;;;;9.93;77.75;98550.22;5044979;28;20551;-66
2022/10/04 00:13:56;;;;;;;0.10;0.10;;;;;;;9.83;78.18;98551.22;5043196;28;20041;-65
2022/10/04 00:16:27;;;;;;;0.10;0.10;;;;;;;9.76;78.78;98551.59;5044697;28;20049;-65
2022/10/04 00:19:23;;;;;;;0.10;0.10;;;;;;;9.76;78.47;98548.88;5041004;28;20416;-64
2022/10/04 00:22:17;;;;;;;0.10;0.10;;;;;;;9.83;78.01;98562.13;5043600;28;20107;-65
2022/10/04 00:25:18;;;;;;;0.10;0.10;;;;;;;9.84;78.13;98552.81;5043409;28;20218;-65
2022/10/04 00:28:20;;;;;;;0.38;0.17;;;;;;;9.82;78.20;98560.50;5043076;28;20120;-65
2022/10/04 00:31:13;;;;;;;0.10;0.10;;;;;;;9.79;78.53;98566.56;5043251;28;20049;-65
2022/10/04 00:33:41;;;;;;;0.10;0.10;;;;;;;9.82;78.56;98576.06;5041650;28;20041;-65
2022/10/04 00:36:35;;;;;;;0.10;0.10;;;;;;;9.84;78.67;98571.13;5025895;28;20055;-65
2022/10/04 00:39:23;;;;;;;0.10;0.10;;;;;;;9.81;78.58;98575.28;5042648;28;20107;-65
2022/10/04 00:42:10;;;;;;;0.28;0.10;;;;;;;9.81;78.51;98567.09;5039827;28;20049;-65
2022/10/04 00:44:44;;;;;;;0.70;0.17;;;;;;;9.81;78.42;98588.09;5042697;28;20546;-66
2022/10/04 00:47:25;;;;;;;0.10;0.10;;;;;;;9.80;78.62;98576.38;5031101;28;20048;-64
2022/10/04 00:49:56;;;;;;;0.10;0.10;;;;;;;9.80;78.10;98579.09;5041339;28;20042;-64
2022/10/04 00:52:28;;;;;;;0.10;0.10;;;;;;;9.84;78.15;98574.66;5023065;28;20358;-65
2022/10/04 00:54:56;;;;;;;0.10;0.10;;;;;;;9.85;78.00;98586.41;5023446;28;20042;-65
2022/10/04 00:57:27;;;;;;;0.15;0.10;;;;;;;9.87;78.39;98600.56;5027786;28;20533;-65
2022/10/04 00:59:57;;;;;;;0.10;0.10;;;;;;;9.88;78.17;98583.06;5021846;28;20057;-65
2022/10/04 01:02:29;;;;;;;0.10;0.10;;;;;;;9.88;77.61;98607.66;5021339;28;20421;-64
2022/10/04 01:04:59;;;;;;;0.10;0.10;;;;;;;9.89;77.87;98595.63;5025429;28;20056;-66
2022/10/04 01:07:32;;;;;;;0.10;0.10;;;;;;;9.91;77.72;98583.28;5019574;28;20061;-65
2022/10/04 01:10:03;;;;;;;0.10;0.10;;;;;;;9.91;77.50;98593.38;5026230;28;20583;-65
2022/10/04 01:12:41;;;;;;;0.10;0.10;;;;;;;9.93;77.27;98610.28;5022217;28;20050;-65
2022/10/04 01:15:13;;;;;;;0.10;0.10;;;;;;;9.91;76.66;98599.69;5022897;28;20064;-65
2022/10/04 01:17:39;;;;;;;0.10;0.10;;;;;;;9.89;76.81;98601.06;5021113;28;20051;-65
2022/10/04 01:20:29;;;;;;;0.10;0.10;;;;;;;9.88;77.18;98602.19;5035717;28;20542;-65
2022/10/04 01:22:56;;;;;;;0.10;0.10;;;;;;;9.83;77.14;98603.06;5041011;28;20056;-64
2022/10/04 01:25:47;;;;;;;0.10;0.10;;;;;;;9.78;77.39;98600.44;5043481;28;20056;-65
2022/10/04 01:28:14;;;;;;;0.10;0.10;;;;;;;9.81;77.55;98624.41;5044935;28;20103;-65
2022/10/04 01:30:41;;;;;;;0.10;0.10;;;;;;;9.82;77.66;98592.44;5040361;28;20356;-65
2022/10/04 01:33:07;;;;;;;0.10;0.10;;;;;;;9.85;77.54;98605.53;5041174;28;20040;-66
2022/10/04 01:35:34;;;;;;;0.10;0.10;;;;;;;9.82;77.57;98606.09;5044424;28;20523;-65
2022/10/04 01:38:05;;;;;;;0.10;0.10;;;;;;;9.77;77.53;98613.25;5038493;28;20037;-63
2022/10/04 01:40:32;;;;;;;0.10;0.10;;;;;;;9.73;77.87;98597.78;5030730;28;20067;-65
2022/10/04 01:43:03;;;;;;;0.10;0.10;;;;;;;9.75;77.80;98601.84;5039216;28;20064;-65
2022/10/04 01:45:36;;;;;;;0.10;0.10;;;;;;;9.70;78.11;98607.41;5040195;28;20420;-65
2022/10/04 01:48:07;;;;;;;0.10;0.10;;;;;;;9.63;78.24;98599.59;5056543;28;20044;-65
2022/10/04 01:50:37;;;;;;;0.00;0.00;;;;;;;9.53;78.84;98610.66;5064364;28;20171;-65
2022/10/04 01:53:12;;;;;;;0.10;0.10;;;;;;;9.40;79.37;98605.94;5040104;28;20132;-64
2022/10/04 01:55:42;;;;;;;0.10;0.10;;;;;;;9.36;80.13;98641.19;5044402;28;20045;-68
2022/10/04 01:58:13;;;;;;;0.10;0.10;;;;;;;9.31;80.31;98609.34;5041776;28;20045;-66
2022/10/04 02:00:50;;;;;;;0.10;0.10;;;;;;;9.33;80.67;98611.78;5040569;28;20057;-65
2022/10/04 02:03:19;;;;;;;0.10;0.10;;;;;;;9.31;80.52;98624.91;5039527;28;20071;-64
2022/10/04 02:05:51;;;;;;;0.10;0.10;;;;;;;9.16;81.03;98620.47;5041939;28;20423;-65
2022/10/04 02:08:24;;;;;;;0.10;0.10;;;;;;;9.06;81.46;98624.16;5041697;28;20049;-65
2022/10/04 02:10:53;;;;;;;0.10;0.10;;;;;;;8.98;81.88;98605.72;5042332;28;20135;-65
2022/10/04 02:13:21;;;;;;;0.10;0.10;;;;;;;8.94;82.68;98609.03;5037944;28;20049;-65
2022/10/04 02:15:48;;;;;;;;;;;;;;;8.91;82.55;98615.09;5038112;28;20461;-65
2022/10/04 02:18:17;;;;;;;0.10;0.10;;;;;;;8.84;82.74;98622.00;5038266;28;20395;-65
2022/10/04 02:20:45;;;;;;;0.10;0.10;;;;;;;8.72;83.47;98625.13;5040060;28;20451;-65
2022/10/04 02:23:13;;;;;;;0.00;0.00;;;;;;;8.51;83.94;98615.28;5037818;28;20047;-64
2022/10/04 02:25:40;;;;;;;0.10;0.10;;;;;;;8.57;84.23;98617.94;5038226;28;20386;-66
2022/10/04 02:28:10;;;;;;;0.10;0.10;;;;;;;8.50;84.48;98616.38;5023738;28;20139;-65
2022/10/04 02:30:37;;;;;;;0.10;0.10;;;;;;;8.50;84.76;98626.47;5038588;28;20118;-66
2022/10/04 02:33:04;;;;;;;0.10;0.10;;;;;;;8.46;84.96;98636.31;5035563;28;20049;-65
2022/10/04 02:35:35;;;;;;;0.10;0.10;;;;;;;8.44;85.26;98612.06;5023494;28;20049;-64
2022/10/04 02:38:08;;;;;;;0.10;0.10;;;;;;;8.58;84.87;98635.91;5022519;28;20045;-65
2022/10/04 02:40:44;;;;;;;0.43;0.15;;;;;;;8.56;84.55;98638.91;5023525;28;20053;-65
2022/10/04 02:43:16;;;;;;;0.38;0.10;;;;;;;8.53;84.88;98644.97;5022914;28;20056;-65
2022/10/04 02:45:48;;;;;;;0.10;0.10;;;;;;;8.53;84.93;98634.06;5021758;28;20045;-65
2022/10/04 02:48:28;;;;;;;0.10;0.10;;;;;;;8.40;85.32;98632.81;5053602;28;20059;-65
2022/10/04 02:50:56;;;;;;;0.10;0.10;;;;;;;8.35;85.89;98632.84;5057691;28;20281;-65
2022/10/04 02:53:28;;;;;;;0.10;0.10;;;;;;;8.42;86.16;98646.13;5057704;28;20137;-63
2022/10/04 02:55:57;;;;;;;0.10;0.10;;;;;;;8.49;85.36;98646.63;5039061;28;20061;-65
2022/10/04 02:58:25;;;;;;;0.10;0.10;;;;;;;8.45;85.61;98648.31;5020471;28;20060;-65
2022/10/04 03:00:56;;;;;;;0.10;0.10;;;;;;;8.46;85.77;98652.66;5037057;28;20227;-65
2022/10/04 03:03:25;;;;;;;0.00;0.00;;;;;;;8.46;85.95;98641.75;5039862;28;20049;-64
2022/10/04 03:06:02;;;;;;;0.10;0.10;;;;;;;8.48;85.70;98645.00;5036343;28;20045;-65
2022/10/04 03:08:32;;;;;;;0.00;0.00;;;;;;;8.47;85.47;98649.63;5019277;28;20052;-65
2022/10/04 03:11:03;;;;;;;0.10;0.10;;;;;;;8.47;85.56;98652.34;5023214;28;20528;-64
2022/10/04 03:13:30;;;;;;;0.10;0.10;;;;;;;8.23;85.79;98625.91;5019430;28;20482;-65
2022/10/04 03:15:56;;;;;;;0.10;0.10;;;;;;;8.44;85.83;98644.75;5019526;28;20136;-65
2022/10/04 03:18:23;;;;;;;0.00;0.00;;;;;;;8.43;85.90;98631.41;5020070;28;20045;-69
2022/10/04 03:20:49;;;;;;;0.10;0.10;;;;;;;8.46;85.81;98660.81;5018667;28;20064;-64
2022/10/04 03:23:17;;;;;;;0.20;0.10;;;;;;;8.43;85.85;98658.66;5015371;28;20049;-64
2022/10/04 03:25:52;;;;;;;0.20;0.20;;;;;;;8.44;86.22;98647.47;5019922;28;20080;-65
2022/10/04 03:28:20;;;;;;;0.10;0.10;;;;;;;8.51;85.62;98645.25;5021485;28;20072;-63
2022/10/04 03:30:48;;;;;;;0.10;0.10;;;;;;;8.48;85.63;98650.44;5022490;28;20451;-65
2022/10/04 03:33:19;;;;;;;;;;;;;;;8.26;85.96;98646.28;5019565;28;20049;-64
2022/10/04 03:35:49;;;;;;;0.10;0.10;;;;;;;8.36;86.20;98654.38;5019776;28;20414;-65
2022/10/04 03:38:16;;;;;;;0.10;0.10;;;;;;;8.29;86.42;98644.91;5022583;28;20508;-65
2022/10/04 03:40:50;;;;;;;0.43;0.10;;;;;;;8.28;86.83;98655.00;5021488;28;20065;-65
2022/10/04 03:43:16;;;;;;;0.10;0.10;;;;;;;8.26;86.89;98667.28;5021094;28;20078;-65
2022/10/04 03:45:45;;;;;;;0.10;0.10;;;;;;;8.26;86.84;98657.19;5020871;28;20052;-65
2022/10/04 03:48:16;;;;;;;0.30;0.20;;;;;;;8.26;86.92;98654.47;5046420;28;20221;-65
2022/10/04 03:50:46;;;;;;;0.10;0.10;;;;;;;8.26;87.12;98665.34;5019489;28;20065;-65
2022/10/04 03:53:23;;;;;;;0.10;0.10;;;;;;;8.24;87.30;98664.81;5016890;28;20058;-65
2022/10/04 03:55:51;;;;;;;0.10;0.10;;;;;;;8.26;86.92;98657.19;5021615;28;20095;-65
2022/10/04 03:58:17;;;;;;;0.10;0.10;;;;;;;8.29;86.95;98659.34;5020613;28;20076;-65
2022/10/04 04:00:59;;;;;;;0.10;0.10;;;;;;;8.26;86.95;98659.91;5021114;28;20045;-64
2022/10/04 04:03:28;;;;;;;0.10;0.10;;;;;;;8.29;87.11;98667.53;5017257;28;20227;-65
2022/10/04 04:05:58;;;;;;;0.10;0.10;;;;;;;8.33;87.05;98684.06;5030917;28;20063;-65
2022/10/04 04:08:31;;;;;;;0.10;0.10;;;;;;;8.41;86.90;98669.84;5039676;28;20563;-66
2022/10/04 04:11:01;;;;;;;0.10;0.10;;;;;;;8.46;86.80;98677.16;5036974;28;20041;-65
2022/10/04 04:13:37;;;;;;;0.20;0.20;;;;;;;8.46;86.43;98675.22;5041594;28;20049;-65
2022/10/04 04:16:05;;;;;;;0.10;0.10;;;;;;;8.49;86.49;98680.09;5038840;28;20132;-65
2022/10/04 04:18:34;;;;;;;0.10;0.10;;;;;;;8.44;86.41;98673.91;5042630;28;20045;-65
2022/10/04 04:21:03;;;;;;;0.10;0.10;;;;;;;8.42;86.59;98673.38;5037550;28;20087;-65
2022/10/04 04:23:34;;;;;;;0.10;0.10;;;;;;;8.43;86.68;98685.88;5038425;28;20040;-65
2022/10/04 04:26:14;;;;;;;0.70;0.20;;;;;;;8.44;86.54;98668.47;5039591;28;20053;-65
2022/10/04 04:28:45;;;;;;;0.15;0.15;;;;;;;8.49;86.67;98701.91;5041488;28;20094;-65
2022/10/04 04:31:19;;;;;;;0.10;0.10;;;;;;;8.55;86.47;98691.78;5040291;28;20041;-65
2022/10/04 04:33:53;;;;;;;0.10;0.10;;;;;;;8.63;86.21;98693.06;5034703;28;20118;-64
2022/10/04 04:36:19;;;;;;;0.10;0.10;;;;;;;8.63;86.01;98687.63;5031484;28;20393;-65
2022/10/04 04:41:34;;;;;;;0.10;0.10;;;;;;;8.58;86.20;98691.22;5050049;28;20063;-65
2022/10/04 04:44:00;;;;;;;0.10;0.10;;;;;;;8.62;86.20;98686.00;5043074;28;20052;-65
2022/10/04 04:46:29;;;;;;;0.10;0.10;;;;;;;8.66;85.76;98695.22;5045410;28;20118;-65
2022/10/04 04:49:01;;;;;;;0.43;0.17;;;;;;;8.64;85.84;98692.78;5047145;28;20041;-64
2022/10/04 04:51:30;;;;;;;0.10;0.10;;;;;;;8.65;85.85;98688.16;5044537;28;20449;-65
2022/10/04 04:53:58;;;;;;;0.10;0.10;;;;;;;8.68;85.98;98708.56;5042070;28;20159;-65
2022/10/04 04:56:27;;;;;;;0.20;0.20;;;;;;;8.74;85.86;98699.22;5042344;28;20136;-65
2022/10/04 04:58:58;;;;;;;0.10;0.10;;;;;;;8.77;85.66;98712.28;5040809;28;20048;-65
2022/10/04 05:01:30;;;;;;;0.10;0.10;;;;;;;8.64;85.47;98683.78;5006937;28;20057;-65
2022/10/04 05:04:02;;;;;;;0.10;0.10;;;;;;;8.81;85.24;98699.69;5036232;28;20055;-65
2022/10/04 05:06:30;;;;;;;0.20;0.10;;;;;;;8.86;85.11;98705.09;5045787;28;20069;-65
2022/10/04 05:08:56;;;;;;;0.10;0.10;;;;;;;8.91;84.91;98712.41;5038791;28;20051;-65
2022/10/04 05:11:28;;;;;;;0.10;0.10;;;;;;;8.90;84.78;98705.31;5041608;28;20045;-64
2022/10/04 05:13:57;;;;;;;0.10;0.10;;;;;;;8.99;84.67;98711.78;5019933;28;20057;-65
2022/10/04 05:16:27;;;;;;;0.10;0.10;;;;;;;9.17;83.69;98723.81;5042060;28;20052;-65
2022/10/04 05:18:57;;;;;;;0.10;0.10;;;;;;;9.27;83.06;98738.44;5040918;28;20111;-65
2022/10/04 05:21:27;;;;;;;0.22;0.10;;;;;;;9.34;82.53;98711.59;5044316;28;20500;-65
2022/10/04 05:23:56;;;;;;;0.10;0.10;;;;;;;9.50;82.30;98714.94;5024665;28;20132;-65
2022/10/04 05:26:26;;;;;;;0.10;0.10;;;;;;;9.63;81.45;98736.03;5044262;28;20040;-65
2022/10/04 05:28:53;;;;;;;0.10;0.10;;;;;;;9.64;81.02;98732.22;5044821;28;20045;-65
2022/10/04 05:31:34;;;;;;;0.10;0.10;;;;;;;9.74;80.98;98731.25;5046003;28;20171;-65
2022/10/04 05:34:16;;;;;;;0.10;0.10;;;;;;;9.82;80.47;98737.13;5014577;28;20430;-65
2022/10/04 05:36:52;;;;;;;0.10;0.10;;;;;;;9.90;79.71;98747.41;5031552;28;20045;-65
2022/10/04 05:39:25;;;;;;;0.30;0.30;;;;;;;10.04;79.64;98734.63;5029554;28;20147;-65
2022/10/04 05:42:00;;;;;;;0.40;0.20;;;;;;;10.08;79.09;98724.72;5030166;28;20424;-65
2022/10/04 05:44:28;;;;;;;0.13;0.13;;;;;;;10.15;78.53;98729.81;5035428;28;20625;-64
2022/10/04 05:46:57;;;;;;;0.20;0.20;;;;;;;10.18;78.43;98731.94;5035982;28;20053;-64
2022/10/04 05:49:29;;;;;;;0.30;0.28;;;;;;;10.21;78.30;98733.25;5039306;28;20052;-64
2022/10/04 05:52:01;;;;;;;0.22;0.20;;;;;;;10.23;77.95;98722.06;5034494;28;20579;-64
2022/10/04 05:54:30;;;;;;;0.20;0.20;;;;;;;10.32;77.76;98737.47;5032843;28;20115;-65
2022/10/04 05:57:36;;;;;;;0.20;0.20;;;;;;;10.32;77.37;98739.38;5036100;28;20055;-65
2022/10/04 06:00:11;;;;;;;0.10;0.10;;;;;;;10.39;77.49;98728.06;5030670;28;20540;-67
2022/10/04 06:03:23;;;;;;;0.20;0.20;;;;;;;10.41;76.98;98734.06;5049422;28;20048;-65
2022/10/04 06:05:53;;;;;;;0.10;0.10;;;;;;;10.48;76.96;98732.56;5035010;28;20080;-64
2022/10/04 06:08:35;;;;;;;0.38;0.20;;;;;;;10.52;76.81;98745.63;5025516;28;20057;-65
2022/10/04 06:11:13;;;;;;;0.10;0.10;;;;;;;10.46;76.42;98732.03;5037648;28;20055;-64
2022/10/04 06:14:00;;;;;;;0.10;0.10;;;;;;;10.41;76.55;98762.19;5045908;28;20033;-65
2022/10/04 06:16:35;;;;;;;;;;;;;;;10.40;76.64;98738.69;5038765;28;20075;-65
2022/10/04 06:19:22;;;;;;;0.10;0.10;;;;;;;10.38;76.31;98759.22;5033162;28;19925;-65
2022/10/04 06:22:06;;;;;;;0.20;0.20;;;;;;;10.30;76.30;98758.81;5021314;28;20608;-65
2022/10/04 06:24:36;;;;;;;0.10;0.10;;;;;;;10.28;76.15;98752.81;5037008;28;20049;-64
2022/10/04 06:27:09;;;;;;;0.10;0.10;;;;;;;10.36;75.52;98764.97;5012650;28;20156;-65
2022/10/04 06:29:41;;;;;;;0.20;0.20;;;;;;;10.44;75.70;98768.97;5039783;28;20045;-65
2022/10/04 06:32:46;;;;;;;0.20;0.20;;;;;;;10.60;75.31;98762.13;5036699;28;20045;-65
2022/10/04 06:35:24;;;;;;;0.20;0.20;;;;;;;10.80;74.20;98782.03;5027749;28;20053;-64
2022/10/04 06:38:31;;;;;;;0.10;0.10;;;;;;;10.87;73.04;98766.03;5033932;28;20177;-64
2022/10/04 06:41:23;;;;;;;0.20;0.20;;;;;;;10.97;72.65;98775.97;5042076;28;20106;-64
2022/10/04 06:44:13;;;;;;;0.10;0.10;;;;;;;11.14;72.39;98761.69;5035645;28;20128;-65
2022/10/04 06:46:46;;;;;;;0.10;0.10;;;;;;;11.30;71.63;98773.13;5040779;28;20041;-64
2022/10/04 06:49:35;;;;;;;0.10;0.10;;;;;;;11.29;70.74;98767.97;5043305;28;20049;-63
2022/10/04 06:52:16;;;;;;;0.13;0.13;;;;;;;11.25;70.47;98777.94;5039755;28;20065;-64
2022/10/04 06:55:03;;;;;;;0.10;0.10;;;;;;;11.23;70.58;98760.97;5040193;28;20559;-64
2022/10/04 06:57:51;;;;;;;0.43;0.20;;;;;;;11.31;69.92;98757.53;5035990;28;20049;-64
2022/10/04 07:00:20;;;;;;;0.30;0.30;;;;;;;11.55;69.34;98773.72;5039281;28;20197;-66
2022/10/04 07:02:51;;;;;;;0.20;0.20;;;;;;;11.72;68.36;98753.94;5040390;28;20513;-64
2022/10/04 07:05:29;;;;;;;0.20;0.20;;;;;;;11.89;67.60;98772.44;5044862;28;20049;-65
2022/10/04 07:08:05;;;;;;;0.20;0.20;;;;;;;12.34;66.07;98766.22;5044746;28;20045;-64
2022/10/04 07:10:38;;;;;;;0.20;0.20;;;;;;;12.56;64.05;98759.09;5045271;28;20067;-65
2022/10/04 07:13:21;;;;;;;0.25;0.25;;;;;;;12.52;64.31;98773.75;5045452;28;20049;-64
2022/10/04 07:15:53;;;;;;;0.30;0.30;;;;;;;12.53;64.64;98789.06;5032789;28;20425;-65
2022/10/04 07:18:25;;;;;;;0.22;0.22;;;;;;;12.21;63.83;98775.31;5036582;28;20032;-64
2022/10/04 07:21:00;;;;;;;0.20;0.20;;;;;;;12.13;64.04;98767.81;5039537;28;20049;-65
2022/10/04 07:23:31;;;;;;;0.20;0.20;;;;;;;12.08;64.06;98774.22;5039778;28;20075;-65
2022/10/04 07:26:03;;;;;;;0.15;0.15;;;;;;;12.16;64.63;98770.75;5039833;28;20432;-65
2022/10/04 07:31:26;;;;;;;0.20;0.20;;;;;;;12.20;63.50;98763.53;5044832;28;20052;-65
2022/10/04 07:33:57;;;;;;;0.38;0.25;;;;;;;12.20;63.47;98770.97;5042522;28;20045;-65
2022/10/04 07:36:28;;;;;;;0.20;0.20;;;;;;;12.14;63.30;98769.44;5032101;28;20071;-65
2022/10/04 07:39:00;;;;;;;0.20;0.20;;;;;;;12.29;63.73;98779.25;5042635;28;20056;-65
2022/10/04 07:41:34;;;;;;;0.30;0.30;;;;;;;12.63;63.06;98777.84;5036179;28;20087;-65
2022/10/04 07:44:06;;;;;;;0.20;0.20;;;;;;;12.80;62.45;98770.84;5041457;28;20044;-65
2022/10/04 07:46:45;;;;;;;0.20;0.20;;;;;;;12.93;62.56;98772.69;5033449;28;20053;-64
2022/10/04 07:49:14;;;;;;;0.20;0.20;;;;;;;12.95;60.90;98781.41;5040519;28;20222;-65
2022/10/04 07:51:58;;;;;;;0.20;0.20;;;;;;;12.80;61.12;98763.44;5039988;28;20182;-64
2022/10/04 07:54:33;;;;;;;0.30;0.30;;;;;;;12.97;60.87;98765.44;5027950;28;20049;-64
2022/10/04 07:57:03;;;;;;;0.30;0.30;;;;;;;13.46;59.11;98768.22;5041216;28;20045;-65
2022/10/04 07:59:44;;;;;;;0.30;0.30;;;;;;;13.84;57.87;98769.59;5038405;28;20531;-65
2022/10/04 08:02:21;;;;;;;0.20;0.20;;;;;;;13.90;57.44;98756.50;5044727;28;20115;-64
2022/10/04 08:04:52;;;;;;;;;;;;;;;13.71;57.56;98762.28;5043883;28;20510;-65
2022/10/04 08:07:27;;;;;;;0.30;0.30;;;;;;;13.74;57.17;98767.97;5042680;28;20023;-64
2022/10/04 08:10:02;;;;;;;0.20;0.20;;;;;;;14.16;55.97;98752.94;5038145;28;20143;-64
2022/10/04 08:12:42;;;;;;;0.10;0.10;;;;;;;13.92;56.33;98759.72;5030441;28;20467;-65
2022/10/04 08:15:28;;;;;;;0.30;0.30;;;;;;;13.81;56.30;98758.44;5047755;28;20495;-65
2022/10/04 08:18:01;;;;;;;0.63;0.50;;;;;;;14.54;54.49;98755.00;5047117;28;20468;-65
2022/10/04 08:20:36;;;;;;;0.30;0.30;;;;;;;14.47;53.33;98740.91;5042203;28;20049;-65
2022/10/04 08:23:25;;;;;;;0.30;0.30;;;;;;;13.97;55.05;98765.06;5043506;28;20516;-65
2022/10/04 08:26:04;;;;;;;0.20;0.20;;;;;;;13.55;56.25;98754.50;5038723;28;20553;-65
2022/10/04 08:31:38;;;;;;;0.20;0.20;;;;;;;13.13;57.22;98776.81;5047986;28;20143;-65
2022/10/04 08:34:21;;;;;;;0.20;0.20;;;;;;;12.91;58.33;98781.22;5043927;28;20040;-64
2022/10/04 08:37:02;;;;;;;0.17;0.17;;;;;;;12.80;58.89;98770.84;5045274;28;20067;-65
2022/10/04 08:39:43;;;;;;;0.10;0.10;;;;;;;12.76;58.98;98757.75;5036349;28;20545;-65
2022/10/04 08:42:41;;;;;;;0.20;0.20;;;;;;;12.69;59.21;98787.56;5040287;28;20060;-65
2022/10/04 08:45:23;;;;;;;0.10;0.10;;;;;;;12.67;59.62;98778.03;5033205;28;20512;-65
2022/10/04 08:48:41;;;;;;;0.30;0.30;;;;;;;12.71;59.12;98781.78;5044978;28;20045;-65
2022/10/04 08:51:37;;;;;;;0.28;0.20;;;;;;;12.77;59.17;98772.28;5017696;28;20555;-64
2022/10/04 08:54:34;;;;;;;0.20;0.20;;;;;;;12.85;58.48;98773.44;5039270;28;20056;-65
2022/10/04 08:57:18;;;;;;;0.20;0.20;;;;;;;12.81;58.75;98740.38;5039570;28;20041;-64
2022/10/04 09:00:04;;;;;;;0.20;0.20;;;;;;;13.02;58.40;98779.00;5042069;28;20048;-65
2022/10/04 09:03:19;;;;;;;0.30;0.30;;;;;;;13.02;57.56;98761.75;5041484;28;20140;-64
2022/10/04 09:05:58;;;;;;;0.20;0.20;;;;;;;13.03;57.63;98768.84;5043093;28;20057;-65
2022/10/04 09:09:06;;;;;;;0.20;0.20;;;;;;;13.13;57.85;98763.09;5045527;28;20512;-64
2022/10/04 09:12:08;;;;;;;0.20;0.20;;;;;;;13.24;57.17;98740.84;5026786;28;20564;-65
2022/10/04 09:15:07;;;;;;;0.30;0.30;;;;;;;13.80;55.81;98770.53;5044784;28;20144;-64
2022/10/04 09:17:45;;;;;;;0.40;0.40;;;;;;;15.17;53.42;98765.50;5046186;28;20088;-64
2022/10/04 09:20:21;;;;;;;1.38;0.90;;;;;;;16.54;47.96;98774.56;5042782;28;20051;-65
2022/10/04 09:22:56;;;;;;;0.90;0.90;;;;;;;17.13;46.61;98744.25;5038973;28;20051;-65
2022/10/04 09:25:44;;;;;;;0.80;0.80;;;;;;;17.44;45.50;98757.47;5038041;28;20044;-64
2022/10/04 09:28:28;;;;;;;;;;;;;;;18.06;43.66;98753.00;5038049;28;20099;-63
2022/10/04 09:31:26;;;;;;;0.80;0.80;;;;;;;17.97;44.18;98734.59;5042386;28;19924;-65
2022/10/04 09:34:13;;;;;;;0.35;0.35;;;;;;;17.24;45.20;98731.56;5041750;28;20072;-65
2022/10/04 09:37:00;;;;;;;0.90;0.90;;;;;;;16.78;46.03;98750.16;5038597;28;20049;-65
2022/10/04 09:39:57;;;;;;;0.55;0.55;;;;;;;17.85;44.58;98742.91;5044813;28;20420;-65
2022/10/04 09:42:49;;;;;;;0.30;0.30;;;;;;;16.67;46.41;98750.59;5043935;28;20057;-65
2022/10/04 09:45:35;;;;;;;0.25;0.25;;;;;;;15.59;48.88;98730.91;5028065;28;20064;-64
2022/10/04 09:48:29;;;;;;;0.20;0.20;;;;;;;14.79;51.10;98736.00;5038535;28;20057;-65
2022/10/04 09:51:45;;;;;;;0.20;0.20;;;;;;;14.32;53.07;98759.53;5043921;28;20140;-65
2022/10/04 09:54:43;;;;;;;0.30;0.30;;;;;;;14.13;52.47;98743.41;4963949;28;20145;-65
2022/10/04 09:57:26;;;;;;;0.30;0.30;;;;;;;14.20;52.49;98742.88;5044182;28;20091;-66
2022/10/04 10:00:01;;;;;;;0.30;0.30;;;;;;;14.16;52.16;98737.25;5047927;28;20056;-64
2022/10/04 10:03:19;;;;;;;0.30;0.30;;;;;;;14.17;52.85;98729.81;5034774;28;20041;-64
2022/10/04 10:06:08;;;;;;;0.22;0.22;;;;;;;14.10;53.16;98760.53;5037962;28;20060;-64
2022/10/04 10:08:47;;;;;;;0.20;0.20;;;;;;;13.96;53.75;98740.63;5034390;28;20044;-64
2022/10/04 10:14:44;;;;;;;0.30;0.30;;;;;;;13.77;54.40;98765.69;5040699;28;20057;-65
2022/10/04 10:17:19;;;;;;;0.30;0.30;;;;;;;13.77;54.12;98760.22;5044189;28;20049;-65
2022/10/04 10:20:27;;;;;;;0.40;0.40;;;;;;;14.14;53.58;98763.44;5033710;28;20095;-65
2022/10/04 10:23:42;;;;;;;0.30;0.30;;;;;;;15.23;51.70;98754.28;4983665;28;20167;-65
2022/10/04 10:26:45;;;;;;;0.38;0.30;;;;;;;15.24;50.85;98742.13;5014745;28;20060;-65
2022/10/04 10:29:50;;;;;;;0.20;0.20;;;;;;;14.67;51.60;98746.84;5038129;28;20045;-66
2022/10/04 10:32:31;;;;;;;0.30;0.30;;;;;;;14.35;52.47;98755.34;5043474;28;20202;-65
2022/10/04 10:35:28;;;;;;;0.30;0.30;;;;;;;14.17;52.84;98746.28;5042963;28;20052;-65
2022/10/04 10:38:15;;;;;;;0.52;0.30;;;;;;;13.82;53.37;98790.25;5031105;28;20106;-65
2022/10/04 10:41:02;;;;;;;0.20;0.20;;;;;;;13.52;54.90;98755.16;5045110;28;20098;-65
2022/10/04 10:43:49;;;;;;;0.20;0.20;;;;;;;13.13;59.36;98793.28;5045452;28;20144;-65
2022/10/04 10:46:30;;;;;;;1.65;0.43;;;;;;;12.24;69.34;98825.94;5034352;28;20059;-65
2022/10/04 10:49:32;;;;;;;0.20;0.20;;;;;;;10.86;82.11;98892.94;5045788;28;20052;-67
2022/10/04 10:52:32;;;;;;;0.17;0.17;;;;;;;10.00;91.38;98900.19;5048023;28;20053;-67
2022/10/04 10:55:32;;;;;;;0.20;0.20;;;;;;;9.53;95.00;98918.22;5038982;28;20512;-68
2022/10/04 10:58:37;;;;;;;0.20;0.20;;;;;;;9.53;97.12;98910.03;5009824;28;20114;-67
2022/10/04 11:01:27;;;;;;;0.13;0.13;;;;;;;9.46;96.76;98888.53;5037222;28;20055;-67
2022/10/04 11:04:48;;;;;;;0.10;0.10;;;;;;;8.89;93.99;98938.16;5041541;28;20108;-67
2022/10/04 11:07:38;;;;;;;0.13;0.13;;;;;;;8.57;94.69;98939.47;4960757;28;20061;-67
2022/10/04 11:10:38;;;;;;;0.10;0.10;;;;;;;8.42;94.11;98922.09;4984842;28;20050;-65
2022/10/04 11:13:38;;;;;;;0.10;0.10;;;;;;;8.33;94.14;98924.59;4974482;28;20510;-67
2022/10/04 11:16:38;;;;;;;0.10;0.10;;;;;;;8.31;94.12;98947.75;4949674;28;20620;-66
2022/10/04 11:19:46;;;;;;;0.10;0.10;;;;;;;8.24;91.95;98931.72;4941639;28;20137;-66
2022/10/04 11:22:44;;;;;;;0.10;0.10;;;;;;;8.31;92.21;98939.56;4986171;28;20081;-66
2022/10/04 11:25:46;;;;;;;0.10;0.10;;;;;;;8.23;89.37;98940.97;4986271;28;20086;-66
2022/10/04 11:28:21;;;;;;;0.10;0.10;;;;;;;8.07;88.82;98956.59;4943484;28;20426;-66
2022/10/04 11:31:47;;;;;;;0.10;0.10;;;;;;;7.97;89.38;98949.28;4979725;28;20050;-66
2022/10/04 11:34:58;;;;;;;0.10;0.10;;;;;;;7.91;90.01;98943.03;4908733;28;20117;-66
2022/10/04 11:37:52;;;;;;;0.10;0.10;;;;;;;7.92;90.20;98957.44;4987557;28;20136;-66
2022/10/04 11:40:39;;;;;;;0.10;0.10;;;;;;;7.93;90.11;98951.72;5036904;28;20081;-65
2022/10/04 11:43:34;;;;;;;0.10;0.10;;;;;;;8.06;90.25;98961.19;5039194;28;20080;-68
2022/10/04 11:46:12;;;;;;;0.10;0.10;;;;;;;8.12;89.50;98944.84;5038018;28;20052;-66
2022/10/04 11:48:52;;;;;;;0.10;0.10;;;;;;;8.27;90.01;98943.97;5045410;28;20342;-66
2022/10/04 11:51:50;;;;;;;0.10;0.10;;;;;;;8.41;87.39;98949.59;5047581;28;20419;-66
2022/10/04 11:54:51;;;;;;;0.10;0.10;;;;;;;8.41;88.46;98957.75;5004233;28;20052;-66
2022/10/04 11:57:34;;;;;;;0.10;0.10;;;;;;;8.47;87.73;98962.91;5042113;28;20052;-66
2022/10/04 12:00:09;;;;;;;0.10;0.10;;;;;;;8.53;86.23;98960.22;5042311;28;20041;-66
2022/10/04 12:03:20;;;;;;;0.20;0.20;;;;;;;8.62;84.85;98972.94;5046592;28;20447;-65
2022/10/04 12:06:15;;;;;;;0.40;0.40;;;;;;;9.39;82.38;98976.19;4996378;28;20041;-66
2022/10/04 12:09:03;;;;;;;0.30;0.30;;;;;;;9.95;78.42;98967.69;5044507;28;20049;-66
2022/10/04 12:12:37;;;;;;;0.70;0.70;;;;;;;11.00;73.67;98974.22;5048857;28;20044;-66
2022/10/04 12:15:31;;;;;;;0.40;0.40;;;;;;;11.73;70.82;98962.84;5011987;28;20062;-65
2022/10/04 12:18:22;;;;;;;0.50;0.50;;;;;;;11.88;67.89;98973.50;4993839;28;20417;-66
2022/10/04 12:21:16;;;;;;;0.20;0.20;;;;;;;11.54;67.92;98971.13;5013614;28;20144;-66
2022/10/04 12:24:08;;;;;;;0.30;0.30;;;;;;;11.02;68.46;99011.13;5007211;28;20050;-65
2022/10/04 12:27:04;;;;;;;0.20;0.20;;;;;;;10.74;70.51;98969.13;5009930;28;20084;-66
2022/10/04 12:30:08;;;;;;;0.20;0.20;;;;;;;10.66;71.20;98988.97;5011673;28;20080;-65
2022/10/04 12:32:44;;;;;;;0.20;0.20;;;;;;;10.57;71.59;98978.66;5001555;28;20145;-66
2022/10/04 12:35:27;;;;;;;0.20;0.20;;;;;;;10.59;72.13;98984.66;5012914;28;20050;-66
2022/10/04 12:38:15;;;;;;;0.20;0.20;;;;;;;10.50;72.87;98994.63;4994835;28;20218;-66
2022/10/04 12:40:48;;;;;;;0.20;0.20;;;;;;;10.47;71.35;99003.44;4977151;28;20046;-65
2022/10/04 12:43:25;;;;;;;0.20;0.20;;;;;;;10.28;72.54;98995.97;5010956;28;20042;-66
2022/10/04 12:46:05;;;;;;;0.30;0.30;;;;;;;10.27;72.06;98983.41;5031662;28;20056;-65
2022/10/04 12:48:47;;;;;;;0.20;0.20;;;;;;;10.25;73.26;99012.16;5041394;28;20041;-65
2022/10/04 12:51:28;;;;;;;0.30;0.30;;;;;;;10.56;71.01;99020.78;5042639;28;20045;-65